sensor_id;sensor_type;location;lat;lon;timestamp;P1;durP1;ratioP1;P2;durP2;ratioP2
11887;SDS011;6003;42.756;23.130;2022-09-30T00:00:26;3.43;;;3.10;;
11887;SDS011;6003;42.756;23.130;2022-09-30T00:02:54;3.20;;;2.90;;
11887;SDS011;6003;42.756;23.130;2022-09-30T00:08:07;2.90;;;2.70;;
11887;SDS011;6003;42.756;23.130;2022-09-30T00:11:01;3.10;;;2.90;;
11887;SDS011;6003;42.756;23.130;2022-09-30T00:13:38;3.33;;;2.87;;
11887;SDS011;6003;42.756;23.130;2022-09-30T00:16:06;2.60;;;2.40;;
11887;SDS011;6003;42.756;23.130;2022-09-30T00:18:37;2.90;;;2.60;;
11887;SDS011;6003;42.756;23.130;2022-09-30T00:21:04;2.80;;;2.60;;
11887;SDS011;6003;42.756;23.130;2022-09-30T00:23:32;2.27;;;2.17;;
11887;SDS011;6003;42.756;23.130;2022-09-30T00:26:01;4.73;;;2.83;;
11887;SDS011;6003;42.756;23.130;2022-09-30T00:28:29;4.07;;;3.10;;
11887;SDS011;6003;42.756;23.130;2022-09-30T00:30:57;3.57;;;3.27;;
11887;SDS011;6003;42.756;23.130;2022-09-30T00:33:25;5.17;;;3.67;;
11887;SDS011;6003;42.756;23.130;2022-09-30T00:35:53;3.17;;;2.90;;
11887;SDS011;6003;42.756;23.130;2022-09-30T00:38:20;3.87;;;3.13;;
11887;SDS011;6003;42.756;23.130;2022-09-30T00:40:47;3.63;;;2.87;;
11887;SDS011;6003;42.756;23.130;2022-09-30T00:43:16;3.03;;;2.83;;
11887;SDS011;6003;42.756;23.130;2022-09-30T00:45:47;2.97;;;2.77;;
11887;SDS011;6003;42.756;23.130;2022-09-30T00:48:17;3.50;;;3.17;;
11887;SDS011;6003;42.756;23.130;2022-09-30T00:50:46;3.30;;;3.03;;
11887;SDS011;6003;42.756;23.130;2022-09-30T00:53:22;3.17;;;2.97;;
11887;SDS011;6003;42.756;23.130;2022-09-30T00:55:55;5.17;;;3.13;;
11887;SDS011;6003;42.756;23.130;2022-09-30T00:58:27;3.40;;;3.10;;
11887;SDS011;6003;42.756;23.130;2022-09-30T01:00:57;3.00;;;2.80;;
11887;SDS011;6003;42.756;23.130;2022-09-30T01:03:26;3.07;;;2.77;;
11887;SDS011;6003;42.756;23.130;2022-09-30T01:05:56;3.10;;;2.83;;
11887;SDS011;6003;42.756;23.130;2022-09-30T01:08:24;3.50;;;3.20;;
11887;SDS011;6003;42.756;23.130;2022-09-30T01:10:53;4.53;;;2.97;;
11887;SDS011;6003;42.756;23.130;2022-09-30T01:13:20;2.80;;;2.63;;
11887;SDS011;6003;42.756;23.130;2022-09-30T01:19:01;3.07;;;2.77;;
11887;SDS011;6003;42.756;23.130;2022-09-30T01:21:58;2.73;;;2.53;;
11887;SDS011;6003;42.756;23.130;2022-09-30T01:24:52;3.40;;;3.10;;
11887;SDS011;6003;42.756;23.130;2022-09-30T01:27:42;4.60;;;2.83;;
11887;SDS011;6003;42.756;23.130;2022-09-30T01:30:37;3.47;;;2.57;;
11887;SDS011;6003;42.756;23.130;2022-09-30T01:33:19;3.03;;;2.83;;
11887;SDS011;6003;42.756;23.130;2022-09-30T01:35:54;5.50;;;2.80;;
11887;SDS011;6003;42.756;23.130;2022-09-30T01:38:39;3.17;;;2.87;;
11887;SDS011;6003;42.756;23.130;2022-09-30T01:41:16;2.80;;;2.60;;
11887;SDS011;6003;42.756;23.130;2022-09-30T01:44:07;3.00;;;2.67;;
11887;SDS011;6003;42.756;23.130;2022-09-30T01:46:41;2.97;;;2.67;;
11887;SDS011;6003;42.756;23.130;2022-09-30T01:49:12;3.17;;;2.90;;
11887;SDS011;6003;42.756;23.130;2022-09-30T01:51:55;3.00;;;2.80;;
11887;SDS011;6003;42.756;23.130;2022-09-30T01:54:29;3.20;;;2.90;;
11887;SDS011;6003;42.756;23.130;2022-09-30T01:57:04;3.10;;;2.90;;
11887;SDS011;6003;42.756;23.130;2022-09-30T01:59:36;3.33;;;3.03;;
11887;SDS011;6003;42.756;23.130;2022-09-30T02:02:09;3.50;;;3.10;;
11887;SDS011;6003;42.756;23.130;2022-09-30T02:04:44;3.67;;;3.37;;
11887;SDS011;6003;42.756;23.130;2022-09-30T02:07:16;2.80;;;2.60;;
11887;SDS011;6003;42.756;23.130;2022-09-30T02:09:50;4.07;;;3.67;;
11887;SDS011;6003;42.756;23.130;2022-09-30T02:12:20;8.50;;;3.80;;
11887;SDS011;6003;42.756;23.130;2022-09-30T02:14:52;3.70;;;3.30;;
11887;SDS011;6003;42.756;23.130;2022-09-30T02:17:26;3.13;;;2.63;;
11887;SDS011;6003;42.756;23.130;2022-09-30T02:19:58;3.37;;;2.80;;
11887;SDS011;6003;42.756;23.130;2022-09-30T02:22:28;3.13;;;2.83;;
11887;SDS011;6003;42.756;23.130;2022-09-30T02:25:05;4.27;;;3.00;;
11887;SDS011;6003;42.756;23.130;2022-09-30T02:27:34;5.93;;;3.03;;
11887;SDS011;6003;42.756;23.130;2022-09-30T02:30:07;2.80;;;2.60;;
11887;SDS011;6003;42.756;23.130;2022-09-30T02:32:39;3.93;;;3.53;;
11887;SDS011;6003;42.756;23.130;2022-09-30T02:35:12;7.57;;;3.93;;
11887;SDS011;6003;42.756;23.130;2022-09-30T02:37:45;4.80;;;3.33;;
11887;SDS011;6003;42.756;23.130;2022-09-30T02:40:17;3.50;;;3.20;;
11887;SDS011;6003;42.756;23.130;2022-09-30T02:42:50;4.50;;;3.80;;
11887;SDS011;6003;42.756;23.130;2022-09-30T02:45:18;5.90;;;4.00;;
11887;SDS011;6003;42.756;23.130;2022-09-30T02:47:53;7.43;;;3.30;;
11887;SDS011;6003;42.756;23.130;2022-09-30T02:50:30;3.73;;;3.43;;
11887;SDS011;6003;42.756;23.130;2022-09-30T02:53:01;6.93;;;4.10;;
11887;SDS011;6003;42.756;23.130;2022-09-30T02:55:40;4.10;;;3.57;;
11887;SDS011;6003;42.756;23.130;2022-09-30T02:58:17;5.87;;;3.73;;
11887;SDS011;6003;42.756;23.130;2022-09-30T03:00:50;4.47;;;4.03;;
11887;SDS011;6003;42.756;23.130;2022-09-30T03:03:19;3.80;;;3.40;;
11887;SDS011;6003;42.756;23.130;2022-09-30T03:05:50;6.17;;;4.57;;
11887;SDS011;6003;42.756;23.130;2022-09-30T03:08:17;4.00;;;3.63;;
11887;SDS011;6003;42.756;23.130;2022-09-30T03:10:45;5.50;;;4.23;;
11887;SDS011;6003;42.756;23.130;2022-09-30T03:13:27;3.67;;;3.23;;
11887;SDS011;6003;42.756;23.130;2022-09-30T03:16:13;4.37;;;3.77;;
11887;SDS011;6003;42.756;23.130;2022-09-30T03:18:52;4.53;;;3.87;;
11887;SDS011;6003;42.756;23.130;2022-09-30T03:21:33;5.07;;;4.33;;
11887;SDS011;6003;42.756;23.130;2022-09-30T03:24:30;5.40;;;4.07;;
11887;SDS011;6003;42.756;23.130;2022-09-30T03:27:10;5.43;;;3.50;;
11887;SDS011;6003;42.756;23.130;2022-09-30T03:29:45;3.97;;;3.57;;
11887;SDS011;6003;42.756;23.130;2022-09-30T03:32:33;4.50;;;3.53;;
11887;SDS011;6003;42.756;23.130;2022-09-30T03:35:20;3.40;;;3.10;;
11887;SDS011;6003;42.756;23.130;2022-09-30T03:37:55;4.97;;;3.80;;
11887;SDS011;6003;42.756;23.130;2022-09-30T03:40:27;4.50;;;3.60;;
11887;SDS011;6003;42.756;23.130;2022-09-30T03:43:08;4.27;;;3.33;;
11887;SDS011;6003;42.756;23.130;2022-09-30T03:45:43;3.17;;;2.57;;
11887;SDS011;6003;42.756;23.130;2022-09-30T03:48:16;3.30;;;3.00;;
11887;SDS011;6003;42.756;23.130;2022-09-30T03:50:47;3.47;;;2.83;;
11887;SDS011;6003;42.756;23.130;2022-09-30T03:53:15;3.57;;;3.27;;
11887;SDS011;6003;42.756;23.130;2022-09-30T03:55:43;4.13;;;3.73;;
11887;SDS011;6003;42.756;23.130;2022-09-30T03:58:13;3.63;;;2.50;;
11887;SDS011;6003;42.756;23.130;2022-09-30T04:00:41;3.90;;;3.60;;
11887;SDS011;6003;42.756;23.130;2022-09-30T04:03:13;2.57;;;2.37;;
11887;SDS011;6003;42.756;23.130;2022-09-30T04:05:40;5.73;;;3.83;;
11887;SDS011;6003;42.756;23.130;2022-09-30T04:08:08;4.00;;;3.70;;
11887;SDS011;6003;42.756;23.130;2022-09-30T04:10:35;3.70;;;3.40;;
11887;SDS011;6003;42.756;23.130;2022-09-30T04:13:02;5.13;;;3.37;;
11887;SDS011;6003;42.756;23.130;2022-09-30T04:15:29;4.93;;;3.53;;
11887;SDS011;6003;42.756;23.130;2022-09-30T04:17:56;4.67;;;3.60;;
11887;SDS011;6003;42.756;23.130;2022-09-30T04:20:24;4.53;;;3.73;;
11887;SDS011;6003;42.756;23.130;2022-09-30T04:22:51;4.53;;;2.93;;
11887;SDS011;6003;42.756;23.130;2022-09-30T04:25:19;6.17;;;3.23;;
11887;SDS011;6003;42.756;23.130;2022-09-30T04:27:46;3.40;;;3.03;;
11887;SDS011;6003;42.756;23.130;2022-09-30T04:30:13;3.83;;;3.50;;
11887;SDS011;6003;42.756;23.130;2022-09-30T04:32:41;3.13;;;2.73;;
11887;SDS011;6003;42.756;23.130;2022-09-30T04:35:09;3.63;;;3.00;;
11887;SDS011;6003;42.756;23.130;2022-09-30T04:37:39;3.50;;;3.20;;
11887;SDS011;6003;42.756;23.130;2022-09-30T04:40:08;6.07;;;3.13;;
11887;SDS011;6003;42.756;23.130;2022-09-30T04:42:36;4.13;;;2.60;;
11887;SDS011;6003;42.756;23.130;2022-09-30T04:45:04;3.77;;;3.20;;
11887;SDS011;6003;42.756;23.130;2022-09-30T04:47:31;4.77;;;3.57;;
11887;SDS011;6003;42.756;23.130;2022-09-30T04:49:58;4.30;;;3.50;;
11887;SDS011;6003;42.756;23.130;2022-09-30T04:52:25;5.13;;;4.23;;
11887;SDS011;6003;42.756;23.130;2022-09-30T04:54:52;4.90;;;4.03;;
11887;SDS011;6003;42.756;23.130;2022-09-30T04:57:19;5.20;;;4.00;;
11887;SDS011;6003;42.756;23.130;2022-09-30T04:59:47;5.17;;;4.17;;
11887;SDS011;6003;42.756;23.130;2022-09-30T05:02:16;4.23;;;3.83;;
11887;SDS011;6003;42.756;23.130;2022-09-30T05:04:43;4.47;;;4.07;;
11887;SDS011;6003;42.756;23.130;2022-09-30T05:07:09;6.37;;;4.80;;
11887;SDS011;6003;42.756;23.130;2022-09-30T05:09:36;9.73;;;3.87;;
11887;SDS011;6003;42.756;23.130;2022-09-30T05:12:03;8.80;;;4.57;;
11887;SDS011;6003;42.756;23.130;2022-09-30T05:14:30;8.13;;;5.40;;
11887;SDS011;6003;42.756;23.130;2022-09-30T05:16:59;10.53;;;5.83;;
11887;SDS011;6003;42.756;23.130;2022-09-30T05:19:26;9.97;;;5.67;;
11887;SDS011;6003;42.756;23.130;2022-09-30T05:21:53;9.00;;;5.73;;
11887;SDS011;6003;42.756;23.130;2022-09-30T05:24:20;10.93;;;5.63;;
11887;SDS011;6003;42.756;23.130;2022-09-30T05:26:47;10.90;;;6.07;;
11887;SDS011;6003;42.756;23.130;2022-09-30T05:29:14;7.23;;;5.23;;
11887;SDS011;6003;42.756;23.130;2022-09-30T05:34:36;7.40;;;4.73;;
11887;SDS011;6003;42.756;23.130;2022-09-30T05:37:04;7.47;;;4.67;;
11887;SDS011;6003;42.756;23.130;2022-09-30T05:39:32;4.93;;;3.87;;
11887;SDS011;6003;42.756;23.130;2022-09-30T05:41:59;4.57;;;3.63;;
11887;SDS011;6003;42.756;23.130;2022-09-30T05:44:26;4.40;;;4.00;;
11887;SDS011;6003;42.756;23.130;2022-09-30T05:46:53;5.30;;;3.70;;
11887;SDS011;6003;42.756;23.130;2022-09-30T05:49:22;3.97;;;3.67;;
11887;SDS011;6003;42.756;23.130;2022-09-30T05:51:50;5.83;;;4.20;;
11887;SDS011;6003;42.756;23.130;2022-09-30T05:54:16;4.30;;;3.40;;
11887;SDS011;6003;42.756;23.130;2022-09-30T05:56:43;4.33;;;3.70;;
11887;SDS011;6003;42.756;23.130;2022-09-30T05:59:10;5.23;;;4.13;;
11887;SDS011;6003;42.756;23.130;2022-09-30T06:01:37;4.80;;;3.93;;
11887;SDS011;6003;42.756;23.130;2022-09-30T06:04:04;5.07;;;3.90;;
11887;SDS011;6003;42.756;23.130;2022-09-30T06:06:32;7.90;;;4.77;;
11887;SDS011;6003;42.756;23.130;2022-09-30T06:08:59;5.17;;;4.20;;
11887;SDS011;6003;42.756;23.130;2022-09-30T06:11:25;4.17;;;3.77;;
11887;SDS011;6003;42.756;23.130;2022-09-30T06:13:52;6.00;;;3.87;;
11887;SDS011;6003;42.756;23.130;2022-09-30T06:16:20;3.67;;;3.10;;
11887;SDS011;6003;42.756;23.130;2022-09-30T06:18:48;2.93;;;2.73;;
11887;SDS011;6003;42.756;23.130;2022-09-30T06:21:15;7.50;;;2.87;;
11887;SDS011;6003;42.756;23.130;2022-09-30T06:23:44;3.67;;;3.37;;
11887;SDS011;6003;42.756;23.130;2022-09-30T06:26:12;7.03;;;3.80;;
11887;SDS011;6003;42.756;23.130;2022-09-30T06:28:39;5.07;;;3.17;;
11887;SDS011;6003;42.756;23.130;2022-09-30T06:31:07;3.83;;;3.43;;
11887;SDS011;6003;42.756;23.130;2022-09-30T06:33:35;3.97;;;3.67;;
11887;SDS011;6003;42.756;23.130;2022-09-30T06:36:02;4.23;;;3.83;;
11887;SDS011;6003;42.756;23.130;2022-09-30T06:38:30;4.13;;;3.73;;
11887;SDS011;6003;42.756;23.130;2022-09-30T06:40:59;4.00;;;3.60;;
11887;SDS011;6003;42.756;23.130;2022-09-30T06:43:26;4.97;;;3.80;;
11887;SDS011;6003;42.756;23.130;2022-09-30T06:45:54;5.17;;;4.23;;
11887;SDS011;6003;42.756;23.130;2022-09-30T06:48:21;6.93;;;4.10;;
11887;SDS011;6003;42.756;23.130;2022-09-30T06:50:48;6.37;;;4.50;;
11887;SDS011;6003;42.756;23.130;2022-09-30T06:53:17;3.93;;;3.53;;
11887;SDS011;6003;42.756;23.130;2022-09-30T06:55:44;6.57;;;4.47;;
11887;SDS011;6003;42.756;23.130;2022-09-30T06:58:13;5.70;;;4.43;;
11887;SDS011;6003;42.756;23.130;2022-09-30T07:00:41;7.30;;;4.70;;
11887;SDS011;6003;42.756;23.130;2022-09-30T07:03:22;7.23;;;5.00;;
11887;SDS011;6003;42.756;23.130;2022-09-30T07:05:55;7.67;;;4.73;;
11887;SDS011;6003;42.756;23.130;2022-09-30T07:08:23;6.87;;;5.13;;
11887;SDS011;6003;42.756;23.130;2022-09-30T07:10:53;10.27;;;5.23;;
11887;SDS011;6003;42.756;23.130;2022-09-30T07:13:23;6.60;;;5.03;;
11887;SDS011;6003;42.756;23.130;2022-09-30T07:15:49;10.10;;;6.13;;
11887;SDS011;6003;42.756;23.130;2022-09-30T07:18:18;7.90;;;5.13;;
11887;SDS011;6003;42.756;23.130;2022-09-30T07:20:49;6.03;;;5.00;;
11887;SDS011;6003;42.756;23.130;2022-09-30T07:23:17;7.07;;;5.37;;
11887;SDS011;6003;42.756;23.130;2022-09-30T07:25:48;11.03;;;8.00;;
11887;SDS011;6003;42.756;23.130;2022-09-30T07:28:16;10.83;;;7.27;;
11887;SDS011;6003;42.756;23.130;2022-09-30T07:30:44;10.23;;;6.40;;
11887;SDS011;6003;42.756;23.130;2022-09-30T07:33:11;8.83;;;6.83;;
11887;SDS011;6003;42.756;23.130;2022-09-30T07:35:40;10.23;;;5.57;;
11887;SDS011;6003;42.756;23.130;2022-09-30T07:38:15;5.30;;;4.60;;
11887;SDS011;6003;42.756;23.130;2022-09-30T07:40:49;4.30;;;3.90;;
11887;SDS011;6003;42.756;23.130;2022-09-30T07:43:18;5.47;;;4.53;;
11887;SDS011;6003;42.756;23.130;2022-09-30T07:45:47;4.53;;;3.80;;
11887;SDS011;6003;42.756;23.130;2022-09-30T07:48:14;5.20;;;4.10;;
11887;SDS011;6003;42.756;23.130;2022-09-30T07:50:55;3.80;;;3.50;;
11887;SDS011;6003;42.756;23.130;2022-09-30T07:56:14;5.80;;;4.00;;
11887;SDS011;6003;42.756;23.130;2022-09-30T07:58:42;3.67;;;3.37;;
11887;SDS011;6003;42.756;23.130;2022-09-30T08:01:11;4.33;;;3.90;;
11887;SDS011;6003;42.756;23.130;2022-09-30T08:03:39;4.83;;;4.00;;
11887;SDS011;6003;42.756;23.130;2022-09-30T08:06:09;4.87;;;4.37;;
11887;SDS011;6003;42.756;23.130;2022-09-30T08:08:38;4.77;;;4.13;;
11887;SDS011;6003;42.756;23.130;2022-09-30T08:11:05;4.30;;;3.90;;
11887;SDS011;6003;42.756;23.130;2022-09-30T08:13:33;5.20;;;4.33;;
11887;SDS011;6003;42.756;23.130;2022-09-30T08:16:00;5.97;;;4.80;;
11887;SDS011;6003;42.756;23.130;2022-09-30T08:18:28;5.77;;;4.77;;
11887;SDS011;6003;42.756;23.130;2022-09-30T08:20:55;7.37;;;5.50;;
11887;SDS011;6003;42.756;23.130;2022-09-30T08:23:26;6.03;;;5.43;;
11887;SDS011;6003;42.756;23.130;2022-09-30T08:25:58;6.33;;;5.30;;
11887;SDS011;6003;42.756;23.130;2022-09-30T08:28:26;5.20;;;4.37;;
11887;SDS011;6003;42.756;23.130;2022-09-30T08:30:55;5.47;;;4.20;;
11887;SDS011;6003;42.756;23.130;2022-09-30T08:33:33;5.50;;;5.00;;
11887;SDS011;6003;42.756;23.130;2022-09-30T08:36:01;6.70;;;5.37;;
11887;SDS011;6003;42.756;23.130;2022-09-30T08:38:28;6.87;;;5.97;;
11887;SDS011;6003;42.756;23.130;2022-09-30T08:40:58;6.60;;;5.80;;
11887;SDS011;6003;42.756;23.130;2022-09-30T08:43:34;7.23;;;5.27;;
11887;SDS011;6003;42.756;23.130;2022-09-30T08:46:13;9.53;;;6.10;;
11887;SDS011;6003;42.756;23.130;2022-09-30T08:48:49;3.73;;;3.43;;
11887;SDS011;6003;42.756;23.130;2022-09-30T08:51:26;2.83;;;2.63;;
11887;SDS011;6003;42.756;23.130;2022-09-30T08:53:58;4.43;;;4.03;;
11887;SDS011;6003;42.756;23.130;2022-09-30T08:56:28;3.60;;;3.40;;
11887;SDS011;6003;42.756;23.130;2022-09-30T08:58:58;2.10;;;2.00;;
11887;SDS011;6003;42.756;23.130;2022-09-30T09:01:32;6.07;;;4.43;;
11887;SDS011;6003;42.756;23.130;2022-09-30T09:04:03;4.47;;;4.00;;
11887;SDS011;6003;42.756;23.130;2022-09-30T09:06:35;4.60;;;4.17;;
11887;SDS011;6003;42.756;23.130;2022-09-30T09:09:15;4.87;;;4.17;;
11887;SDS011;6003;42.756;23.130;2022-09-30T09:12:09;5.33;;;4.47;;
11887;SDS011;6003;42.756;23.130;2022-09-30T09:14:45;2.03;;;1.70;;
11887;SDS011;6003;42.756;23.130;2022-09-30T09:17:22;1.40;;;1.30;;
11887;SDS011;6003;42.756;23.130;2022-09-30T09:20:01;1.50;;;1.50;;
11887;SDS011;6003;42.756;23.130;2022-09-30T09:22:37;1.40;;;1.40;;
11887;SDS011;6003;42.756;23.130;2022-09-30T09:25:05;1.43;;;1.43;;
11887;SDS011;6003;42.756;23.130;2022-09-30T09:27:42;1.37;;;1.27;;
11887;SDS011;6003;42.756;23.130;2022-09-30T09:30:16;1.50;;;1.40;;
11887;SDS011;6003;42.756;23.130;2022-09-30T09:32:48;1.80;;;1.70;;
11887;SDS011;6003;42.756;23.130;2022-09-30T09:35:23;1.13;;;1.13;;
11887;SDS011;6003;42.756;23.130;2022-09-30T09:37:59;1.40;;;1.30;;
11887;SDS011;6003;42.756;23.130;2022-09-30T09:40:49;2.17;;;1.60;;
11887;SDS011;6003;42.756;23.130;2022-09-30T09:43:26;1.30;;;1.30;;
11887;SDS011;6003;42.756;23.130;2022-09-30T09:46:02;1.87;;;1.77;;
11887;SDS011;6003;42.756;23.130;2022-09-30T09:48:37;1.40;;;1.40;;
11887;SDS011;6003;42.756;23.130;2022-09-30T09:51:09;1.30;;;1.30;;
11887;SDS011;6003;42.756;23.130;2022-09-30T09:53:46;1.35;;;1.35;;
11887;SDS011;6003;42.756;23.130;2022-09-30T09:56:15;1.63;;;1.53;;
11887;SDS011;6003;42.756;23.130;2022-09-30T10:01:38;1.45;;;1.35;;
11887;SDS011;6003;42.756;23.130;2022-09-30T10:04:08;1.50;;;1.40;;
11887;SDS011;6003;42.756;23.130;2022-09-30T10:06:46;1.33;;;1.30;;
11887;SDS011;6003;42.756;23.130;2022-09-30T10:09:20;1.23;;;1.13;;
11887;SDS011;6003;42.756;23.130;2022-09-30T10:17:49;1.10;;;1.10;;
11887;SDS011;6003;42.756;23.130;2022-09-30T10:20:22;1.57;;;1.30;;
11887;SDS011;6003;42.756;23.130;2022-09-30T10:23:07;1.20;;;1.20;;
11887;SDS011;6003;42.756;23.130;2022-09-30T10:25:50;1.63;;;1.52;;
11887;SDS011;6003;42.756;23.130;2022-09-30T10:28:22;1.10;;;1.10;;
11887;SDS011;6003;42.756;23.130;2022-09-30T10:30:52;1.20;;;1.20;;
11887;SDS011;6003;42.756;23.130;2022-09-30T10:33:25;1.35;;;1.25;;
11887;SDS011;6003;42.756;23.130;2022-09-30T10:38:58;1.10;;;1.10;;
11887;SDS011;6003;42.756;23.130;2022-09-30T10:41:29;0.93;;;0.93;;
11887;SDS011;6003;42.756;23.130;2022-09-30T10:43:58;1.00;;;1.00;;
11887;SDS011;6003;42.756;23.130;2022-09-30T10:46:28;1.08;;;1.08;;
11887;SDS011;6003;42.756;23.130;2022-09-30T10:48:59;1.20;;;1.20;;
11887;SDS011;6003;42.756;23.130;2022-09-30T10:51:35;1.13;;;1.13;;
11887;SDS011;6003;42.756;23.130;2022-09-30T10:54:04;0.90;;;0.90;;
11887;SDS011;6003;42.756;23.130;2022-09-30T10:56:33;1.10;;;1.10;;
11887;SDS011;6003;42.756;23.130;2022-09-30T10:59:06;1.00;;;1.00;;
11887;SDS011;6003;42.756;23.130;2022-09-30T11:01:45;1.42;;;1.33;;
11887;SDS011;6003;42.756;23.130;2022-09-30T11:04:18;9.23;;;1.33;;
11887;SDS011;6003;42.756;23.130;2022-09-30T11:06:53;1.08;;;1.08;;
11887;SDS011;6003;42.756;23.130;2022-09-30T11:09:37;0.80;;;0.80;;
11887;SDS011;6003;42.756;23.130;2022-09-30T11:12:13;1.17;;;1.17;;
11887;SDS011;6003;42.756;23.130;2022-09-30T11:14:48;1.10;;;1.10;;
11887;SDS011;6003;42.756;23.130;2022-09-30T11:17:24;2.22;;;1.17;;
11887;SDS011;6003;42.756;23.130;2022-09-30T11:20:00;1.40;;;1.13;;
11887;SDS011;6003;42.756;23.130;2022-09-30T11:22:38;0.90;;;0.90;;
11887;SDS011;6003;42.756;23.130;2022-09-30T11:25:13;0.90;;;0.90;;
11887;SDS011;6003;42.756;23.130;2022-09-30T11:27:44;1.10;;;1.10;;
11887;SDS011;6003;42.756;23.130;2022-09-30T11:30:23;1.15;;;1.15;;
11887;SDS011;6003;42.756;23.130;2022-09-30T11:33:05;1.13;;;1.02;;
11887;SDS011;6003;42.756;23.130;2022-09-30T11:35:48;1.25;;;1.25;;
11887;SDS011;6003;42.756;23.130;2022-09-30T11:38:38;1.55;;;1.45;;
11887;SDS011;6003;42.756;23.130;2022-09-30T11:41:15;1.20;;;1.20;;
11887;SDS011;6003;42.756;23.130;2022-09-30T11:43:50;0.80;;;0.80;;
11887;SDS011;6003;42.756;23.130;2022-09-30T11:46:29;0.80;;;0.80;;
11887;SDS011;6003;42.756;23.130;2022-09-30T11:49:21;0.90;;;0.90;;
11887;SDS011;6003;42.756;23.130;2022-09-30T11:52:07;1.02;;;0.90;;
11887;SDS011;6003;42.756;23.130;2022-09-30T11:54:53;0.90;;;0.90;;
11887;SDS011;6003;42.756;23.130;2022-09-30T11:57:46;1.25;;;1.25;;
11887;SDS011;6003;42.756;23.130;2022-09-30T12:00:18;0.90;;;0.90;;
11887;SDS011;6003;42.756;23.130;2022-09-30T12:02:46;0.98;;;0.98;;
11887;SDS011;6003;42.756;23.130;2022-09-30T12:05:16;0.90;;;0.90;;
11887;SDS011;6003;42.756;23.130;2022-09-30T12:07:49;1.00;;;1.00;;
11887;SDS011;6003;42.756;23.130;2022-09-30T12:10:21;1.10;;;1.00;;
11887;SDS011;6003;42.756;23.130;2022-09-30T12:12:53;1.00;;;1.00;;
11887;SDS011;6003;42.756;23.130;2022-09-30T12:15:25;0.80;;;0.80;;
11887;SDS011;6003;42.756;23.130;2022-09-30T12:17:54;0.90;;;0.90;;
11887;SDS011;6003;42.756;23.130;2022-09-30T12:20:26;0.90;;;0.90;;
11887;SDS011;6003;42.756;23.130;2022-09-30T12:22:58;0.82;;;0.82;;
11887;SDS011;6003;42.756;23.130;2022-09-30T12:25:33;1.05;;;0.90;;
11887;SDS011;6003;42.756;23.130;2022-09-30T12:28:11;0.80;;;0.80;;
11887;SDS011;6003;42.756;23.130;2022-09-30T12:31:06;1.00;;;1.00;;
11887;SDS011;6003;42.756;23.130;2022-09-30T12:33:51;0.98;;;0.98;;
11887;SDS011;6003;42.756;23.130;2022-09-30T12:36:42;0.80;;;0.80;;
11887;SDS011;6003;42.756;23.130;2022-09-30T12:39:42;1.27;;;0.75;;
11887;SDS011;6003;42.756;23.130;2022-09-30T12:45:41;0.90;;;0.90;;
11887;SDS011;6003;42.756;23.130;2022-09-30T12:48:27;5.35;;;1.02;;
11887;SDS011;6003;42.756;23.130;2022-09-30T12:51:00;1.05;;;1.02;;
11887;SDS011;6003;42.756;23.130;2022-09-30T12:53:29;0.88;;;0.88;;
11887;SDS011;6003;42.756;23.130;2022-09-30T12:56:02;0.90;;;0.90;;
11887;SDS011;6003;42.756;23.130;2022-09-30T12:58:33;1.02;;;1.02;;
11887;SDS011;6003;42.756;23.130;2022-09-30T13:01:05;0.80;;;0.80;;
11887;SDS011;6003;42.756;23.130;2022-09-30T13:03:44;0.75;;;0.75;;
11887;SDS011;6003;42.756;23.130;2022-09-30T13:06:15;0.90;;;0.90;;
11887;SDS011;6003;42.756;23.130;2022-09-30T13:11:43;0.90;;;0.90;;
11887;SDS011;6003;42.756;23.130;2022-09-30T13:17:02;1.00;;;0.90;;
11887;SDS011;6003;42.756;23.130;2022-09-30T13:19:45;0.85;;;0.85;;
11887;SDS011;6003;42.756;23.130;2022-09-30T13:25:11;1.10;;;1.10;;
11887;SDS011;6003;42.756;23.130;2022-09-30T13:27:43;1.10;;;1.10;;
11887;SDS011;6003;42.756;23.130;2022-09-30T13:35:56;0.90;;;0.90;;
11887;SDS011;6003;42.756;23.130;2022-09-30T13:38:33;0.70;;;0.70;;
11887;SDS011;6003;42.756;23.130;2022-09-30T13:41:02;0.97;;;0.97;;
11887;SDS011;6003;42.756;23.130;2022-09-30T13:43:34;0.97;;;0.97;;
11887;SDS011;6003;42.756;23.130;2022-09-30T13:46:05;1.17;;;1.10;;
11887;SDS011;6003;42.756;23.130;2022-09-30T13:48:41;0.88;;;0.88;;
11887;SDS011;6003;42.756;23.130;2022-09-30T13:51:14;1.10;;;1.10;;
11887;SDS011;6003;42.756;23.130;2022-09-30T13:53:45;1.17;;;0.90;;
11887;SDS011;6003;42.756;23.130;2022-09-30T13:56:16;0.87;;;0.87;;
11887;SDS011;6003;42.756;23.130;2022-09-30T13:58:51;1.13;;;1.02;;
11887;SDS011;6003;42.756;23.130;2022-09-30T14:05:09;0.80;;;0.80;;
11887;SDS011;6003;42.756;23.130;2022-09-30T14:07:57;0.87;;;0.87;;
11887;SDS011;6003;42.756;23.130;2022-09-30T14:10:40;0.70;;;0.70;;
11887;SDS011;6003;42.756;23.130;2022-09-30T14:13:25;0.80;;;0.80;;
11887;SDS011;6003;42.756;23.130;2022-09-30T14:22:08;0.87;;;0.87;;
11887;SDS011;6003;42.756;23.130;2022-09-30T14:24:37;1.17;;;1.07;;
11887;SDS011;6003;42.756;23.130;2022-09-30T14:27:13;0.50;;;0.50;;
11887;SDS011;6003;42.756;23.130;2022-09-30T14:30:00;0.80;;;0.80;;
11887;SDS011;6003;42.756;23.130;2022-09-30T14:32:31;0.80;;;0.80;;
11887;SDS011;6003;42.756;23.130;2022-09-30T14:35:03;0.83;;;0.83;;
11887;SDS011;6003;42.756;23.130;2022-09-30T14:37:34;1.00;;;1.00;;
11887;SDS011;6003;42.756;23.130;2022-09-30T14:40:07;1.00;;;0.97;;
11887;SDS011;6003;42.756;23.130;2022-09-30T14:42:38;1.27;;;1.17;;
11887;SDS011;6003;42.756;23.130;2022-09-30T14:45:11;0.80;;;0.80;;
11887;SDS011;6003;42.756;23.130;2022-09-30T14:47:46;1.43;;;0.90;;
11887;SDS011;6003;42.756;23.130;2022-09-30T14:50:17;0.83;;;0.83;;
11887;SDS011;6003;42.756;23.130;2022-09-30T14:52:48;0.80;;;0.80;;
11887;SDS011;6003;42.756;23.130;2022-09-30T14:55:20;0.60;;;0.60;;
11887;SDS011;6003;42.756;23.130;2022-09-30T14:57:49;1.10;;;1.10;;
11887;SDS011;6003;42.756;23.130;2022-09-30T15:00:26;0.90;;;0.90;;
11887;SDS011;6003;42.756;23.130;2022-09-30T15:02:55;0.90;;;0.90;;
11887;SDS011;6003;42.756;23.130;2022-09-30T15:05:23;0.70;;;0.70;;
11887;SDS011;6003;42.756;23.130;2022-09-30T15:07:52;0.97;;;0.97;;
11887;SDS011;6003;42.756;23.130;2022-09-30T15:10:20;0.80;;;0.80;;
11887;SDS011;6003;42.756;23.130;2022-09-30T15:12:49;0.80;;;0.80;;
11887;SDS011;6003;42.756;23.130;2022-09-30T15:15:27;0.90;;;0.90;;
11887;SDS011;6003;42.756;23.130;2022-09-30T15:20:53;0.80;;;0.80;;
11887;SDS011;6003;42.756;23.130;2022-09-30T15:23:25;1.60;;;1.00;;
11887;SDS011;6003;42.756;23.130;2022-09-30T15:25:55;1.00;;;1.00;;
11887;SDS011;6003;42.756;23.130;2022-09-30T15:28:24;1.00;;;1.00;;
11887;SDS011;6003;42.756;23.130;2022-09-30T15:30:51;0.90;;;0.90;;
11887;SDS011;6003;42.756;23.130;2022-09-30T15:33:22;0.70;;;0.70;;
11887;SDS011;6003;42.756;23.130;2022-09-30T15:35:51;0.80;;;0.80;;
11887;SDS011;6003;42.756;23.130;2022-09-30T15:38:28;0.80;;;0.80;;
11887;SDS011;6003;42.756;23.130;2022-09-30T15:40:58;0.80;;;0.80;;
11887;SDS011;6003;42.756;23.130;2022-09-30T15:43:29;1.10;;;1.10;;
11887;SDS011;6003;42.756;23.130;2022-09-30T15:46:14;1.17;;;1.10;;
11887;SDS011;6003;42.756;23.130;2022-09-30T15:48:43;3.80;;;1.10;;
11887;SDS011;6003;42.756;23.130;2022-09-30T15:51:24;1.30;;;1.20;;
11887;SDS011;6003;42.756;23.130;2022-09-30T15:53:57;1.00;;;1.00;;
11887;SDS011;6003;42.756;23.130;2022-09-30T15:56:29;1.10;;;1.00;;
11887;SDS011;6003;42.756;23.130;2022-09-30T15:58:59;1.20;;;1.10;;
11887;SDS011;6003;42.756;23.130;2022-09-30T16:01:37;1.10;;;1.10;;
11887;SDS011;6003;42.756;23.130;2022-09-30T16:04:06;1.00;;;1.00;;
11887;SDS011;6003;42.756;23.130;2022-09-30T16:06:42;1.47;;;1.37;;
11887;SDS011;6003;42.756;23.130;2022-09-30T16:09:18;0.87;;;0.87;;
11887;SDS011;6003;42.756;23.130;2022-09-30T16:12:08;0.90;;;0.90;;
11887;SDS011;6003;42.756;23.130;2022-09-30T16:14:43;1.07;;;1.07;;